x

Lake Nipissing (45152) Wave Buoy

12:00pm - Wed 23rd Jul 2014 All times are CDT. -5 hours from GMT.

  • Sig Wave height 1.0ft
  • Peak Period 3s
  • Wind
    18mph, 25mph gusts
  • Sea Temp 69°f
  • Air Temp 66°f
  • Sea Pressure 1015.4mb
  • Lake Nipissing
  • Lake Nipissing

More Historic Weather Station data

Upgrade to MSW Pro to gain access to the past 30 days of data for over 8000 Wavebouys and Weather Stations around the globe.

Join Pro

Comparision Forecast

View Surf forecast
   
Wed 07/23 12:00pm 1ft 3s 18 25 mph 1015.4mb 69f 66f
11:00am 1ft 2s 13 18 mph 1015.6mb 69f 63f
10:00am 1ft 2s 18 22 mph 1016mb 69f 60f
9:00am 1ft 2s 16 20 mph 1015.8mb 69f 58f
8:00am 1ft 2s 18 22 mph 1015.6mb 69f 59f
7:00am 1ft 2s 18 25 mph 1015mb 69f 60f
6:00am 1ft 3s 13 16 mph 1014.2mb 69f 60f
5:00am 1.6ft 3s 18 22 mph 1012.7mb 69f 60f
4:00am 2ft 3s 22 29 mph 1011mb 69f 61f
3:00am  -   -  22
mph
1009.6mb - 64f
2:00am 1.3ft 3s 18 20 mph 1008.9mb 69f 69f
1:00am 1.3ft 3s 16
mph
1009mb 69f 70f
12:00am 1ft 2s 13 18 mph 1008.5mb 70f 71f
Tue 07/22 11:00pm 1ft 2s 13 18 mph 1008.4mb 70f 72f
10:00pm 1.3ft 2s 18 25 mph 1008.3mb 70f 74f
9:00pm  -   -  22
mph
1008.1mb 70f 75f
8:00pm 0.7ft 2s 18 22 mph 1008.9mb 70f 74f
7:00pm 0.7ft 2s 16 18 mph 1009.3mb 70f 74f
6:00pm 1ft 2s 11 13 mph 1009.7mb 70f 74f
5:00pm 1.3ft 3s 18 27 mph 1010.7mb 70f 79f
4:00pm 1.3ft 2s 22 27 mph 1011.8mb 70f 80f
3:00pm 1ft 2s 22 27 mph 1011.4mb 70f 80f
2:00pm 1ft 2s 20 27 mph 1012.2mb 70f 79f
1:00pm 1ft 2s 18 25 mph 1013.1mb 71f 79f
12:00pm 0.7ft 2s 16 20 mph 1014.2mb 71f 78f
11:00am 0.7ft 2s 18 22 mph 1015.3mb 70f 78f
10:00am 0.3ft 2s 13 18 mph 1015.8mb 70f 76f
9:00am 0.3ft 2s 7 9 mph 1016.7mb 70f 72f
8:00am 0.3ft 2s 11 13 mph 1017.6mb 70f 72f
7:00am 0.3ft 2s 9 13 mph 1017.4mb 70f 71f
6:00am 0.3ft 3s 13 16 mph 1016.7mb 70f 71f
5:00am 0.3ft 2s 7 9 mph 1017.7mb 70f 70f
4:00am  -  3s 9 11 mph 1017.4mb 70f 71f
3:00am 0.3ft 3s 9
mph
1017.4mb 70f 70f
2:00am 0.3ft 2s 9 11 mph 1017.6mb 70f 71f
1:00am 0.3ft 2s 9 11 mph 1017.7mb 70f 70f
12:00am 0.3ft 2s 9 11 mph 1018.1mb 70f 70f
Mon 07/21 11:00pm 0.3ft 2s 11 13 mph 1018.3mb 70f 70f
10:00pm 0.3ft 2s 11 13 mph 1018.3mb 70f 71f
9:00pm 0.3ft 2s 9
mph
1018.5mb 70f 71f
8:00pm 0.3ft 2s 4 7 mph 1018.1mb 70f 73f
7:00pm 0.7ft 2s 7
mph
1018mb 71f 74f
6:00pm 0.7ft 2s 13 18 mph 1017.8mb 71f 76f
5:00pm 1ft 2s 13 18 mph 1017.5mb 71f 77f
4:00pm 0.7ft 2s 16 20 mph 1017.7mb 72f 77f
3:00pm 0.7ft 2s 13 20 mph 1018.1mb 73f 77f
2:00pm 0.3ft 2s 11 16 mph 1018.6mb 73f 77f
1:00pm  -  2s 4
mph
1019.1mb 73f 73f
12:00pm  -  2s 4 7 mph 1019.5mb 72f 70f
11:00am  -  2s 7
mph
1019.5mb 71f 67f
10:00am  -  3s 7
mph
1019.5mb 71f 66f
9:00am  -  3s 4 7 mph 1019.3mb 70f 66f
8:00am  -  2s  -  2 mph 1019.8mb 69f 68f
7:00am  -  2s 4 7 mph 1019.6mb 69f 63f
6:00am  -  2s 4 7 mph 1019.4mb 69f 62f
5:00am  -  3s 4 9 mph 1019.5mb 69f 62f
4:00am 0.3ft 3s 7 9 mph 1018.9mb 70f 62f
3:00am 0.3ft 2s 9
mph
1018.4mb 70f 62f
2:00am  -  2s 9 13 mph 1018mb 70f 65f
1:00am  -  2s 7 9 mph 1018.1mb 70f 66f
12:00am  -  2s 9
mph
1018mb 70f 67f
Sun 07/20 11:00pm  -  3s 9
mph
1018mb 70f 68f
10:00pm  -  3s 7 9 mph 1017.8mb 70f 69f
9:00pm  -  3s 4 7 mph 1017.6mb 70f 70f
8:00pm  -  3s 4 7 mph 1017.1mb 71f 71f
7:00pm  -  2s 4 7 mph 1017mb 71f 72f
6:00pm  -  2s 7
mph
1016.8mb 71f 72f
5:00pm  -  2s 4 7 mph 1016.9mb 71f 71f
4:00pm  -  3s 7 9 mph 1017.1mb 71f 70f
3:00pm  -  2s 4 7 mph 1017.3mb 71f 69f
2:00pm  -  2s 2 4 mph 1017.8mb 70f 69f
1:00pm 0.3ft 2s 4 7 mph 1018.2mb 70f 67f
12:00pm 0.3ft 2s 4
mph
1018.6mb 70f 67f
11:00am 0.3ft 2s 4 7 mph 1018.9mb 69f 66f
10:00am 0.3ft 2s 4 7 mph 1019.1mb 69f 65f
9:00am 0.7ft 2s 4 7 mph 1019.2mb 69f 65f
8:00am 0.7ft 3s 9 11 mph 1019.3mb 69f 64f
7:00am 0.7ft 2s 11 13 mph 1019.2mb 70f 65f
6:00am 0.3ft 2s 11 13 mph 1018.7mb 70f 66f
5:00am 0.3ft 2s 9
mph
1018.6mb 70f 65f
4:00am 0.3ft 3s 7 9 mph 1018.6mb 70f 67f
3:00am  -  2s 4 7 mph 1018.4mb 70f 67f
2:00am  -  2s 7 9 mph 1018.6mb 70f 67f
1:00am  -  3s 2 4 mph 1018.8mb 71f 66f
12:00am 0.3ft 3s 7 9 mph 1019.4mb 71f 67f
Sat 07/19 11:00pm  -  3s 9
mph
1019.2mb 71f 67f
10:00pm  -  2s 7 9 mph 1019.1mb 71f 69f
9:00pm  -  2s 4
mph
1019.1mb 71f 70f
8:00pm  -  2s 4 7 mph 1019.3mb 71f 71f
7:00pm  -  2s 4 7 mph 1019.6mb 71f 72f